createdAt,value
2019-05-05T00:00:16.987Z,1.81
2019-05-05T00:05:16.959Z,1.81
2019-05-05T00:10:17.001Z,1.75
2019-05-05T00:15:16.994Z,1.75
2019-05-05T00:20:16.993Z,1.75
2019-05-05T00:25:16.993Z,1.75
2019-05-05T00:30:16.961Z,1.69
2019-05-05T00:35:17.011Z,1.63
2019-05-05T00:40:16.991Z,1.63
2019-05-05T00:45:16.975Z,1.56
2019-05-05T00:50:16.971Z,1.56
2019-05-05T00:55:17.042Z,1.56
2019-05-05T01:00:16.999Z,1.56
2019-05-05T01:05:16.988Z,1.5
2019-05-05T01:10:17.028Z,1.5
2019-05-05T01:15:17.010Z,1.5
2019-05-05T01:20:16.996Z,1.44
2019-05-05T01:25:17.068Z,1.5
2019-05-05T01:30:17.012Z,1.5
2019-05-05T01:35:17.021Z,1.56
2019-05-05T01:40:17.024Z,1.5
2019-05-05T01:45:17.031Z,1.44
2019-05-05T01:50:20.797Z,1.38
2019-05-05T01:55:17.022Z,1.31
2019-05-05T02:00:17.024Z,1.25
2019-05-05T02:05:16.990Z,1.13
2019-05-05T02:10:17.012Z,1.06
2019-05-05T02:15:17.034Z,1
2019-05-05T02:20:28.504Z,0.88
2019-05-05T02:25:17.017Z,0.81
2019-05-05T02:30:17.022Z,0.75
2019-05-05T02:35:17.043Z,0.75
2019-05-05T02:40:17.048Z,0.75
2019-05-05T02:45:17.042Z,0.75
2019-05-05T02:50:17.087Z,0.75
2019-05-05T02:55:17.023Z,0.75
2019-05-05T03:00:17.070Z,0.75
2019-05-05T03:05:17.046Z,0.75
2019-05-05T03:10:17.083Z,0.75
2019-05-05T03:15:17.033Z,0.75
2019-05-05T03:20:17.053Z,0.75
2019-05-05T03:25:17.020Z,0.69
2019-05-05T03:30:17.060Z,0.69
2019-05-05T03:35:17.059Z,0.63
2019-05-05T03:40:17.038Z,0.63
2019-05-05T03:45:17.038Z,0.63
2019-05-05T03:50:17.059Z,0.88
2019-05-05T03:55:17.055Z,1.44
2019-05-05T04:00:17.019Z,1.44
2019-05-05T04:05:17.099Z,1.44
2019-05-05T04:10:17.047Z,2.69
2019-05-05T04:15:17.069Z,2.81
2019-05-05T04:20:17.046Z,3.06
2019-05-05T04:25:17.055Z,2.69
2019-05-05T04:30:17.056Z,2.25
2019-05-05T04:35:17.097Z,2.31
2019-05-05T04:40:17.038Z,2.25
2019-05-05T04:45:17.093Z,2.06
2019-05-05T04:50:18.335Z,2.13
2019-05-05T04:55:17.096Z,2.44
2019-05-05T05:00:17.120Z,2.44
2019-05-05T05:05:17.076Z,2.88
2019-05-05T05:10:17.062Z,3.13
2019-05-05T05:15:17.098Z,3.44
2019-05-05T05:20:17.043Z,3.5
2019-05-05T05:25:17.060Z,3.44
2019-05-05T05:30:17.088Z,4.19
2019-05-05T05:35:17.050Z,5.31
2019-05-05T05:40:17.057Z,5.88
2019-05-05T05:45:17.093Z,6.44
2019-05-05T05:50:17.085Z,7.75
2019-05-05T05:55:17.078Z,8.94
2019-05-05T06:00:17.131Z,9.44
2019-05-05T06:05:17.070Z,8.69
2019-05-05T06:10:23.784Z,8
2019-05-05T06:15:17.114Z,7.38
2019-05-05T06:20:17.090Z,7.69
2019-05-05T06:25:17.099Z,8.25
2019-05-05T06:30:17.138Z,8.88
2019-05-05T06:35:17.089Z,11
2019-05-05T06:40:17.088Z,11.56
2019-05-05T06:45:17.132Z,10.75
2019-05-05T06:50:17.147Z,10.75
2019-05-05T06:55:17.107Z,13
2019-05-05T07:00:17.172Z,14.31
2019-05-05T07:05:17.124Z,14.81
2019-05-05T07:10:17.099Z,15.06
2019-05-05T07:15:17.137Z,15.44
2019-05-05T07:20:17.100Z,15.44
2019-05-05T07:25:17.106Z,14.81
2019-05-05T07:30:17.138Z,14.19
2019-05-05T07:35:17.141Z,12.81
2019-05-05T07:40:17.106Z,11.88
2019-05-05T07:45:21.931Z,11.88
2019-05-05T07:50:28.245Z,11.13
2019-05-05T07:55:17.147Z,10.63
2019-05-05T08:00:17.153Z,10.69
2019-05-05T08:05:17.116Z,11.88
2019-05-05T08:10:17.123Z,11.63
2019-05-05T08:15:17.157Z,11.19
2019-05-05T08:20:19.290Z,12.25
2019-05-05T08:25:17.123Z,11.44
2019-05-05T08:30:17.158Z,10.63
2019-05-05T08:35:17.186Z,11.63
2019-05-05T08:40:17.130Z,12.06
2019-05-05T08:45:17.169Z,12.88
2019-05-05T08:50:17.133Z,13.06
2019-05-05T08:55:17.133Z,12
2019-05-05T09:00:17.165Z,12.19
2019-05-05T09:05:17.135Z,12.5
2019-05-05T09:10:17.137Z,12.13
2019-05-05T09:15:17.177Z,11
2019-05-05T09:20:17.143Z,10.81
2019-05-05T09:25:17.140Z,11.38
2019-05-05T09:30:17.216Z,12.31
2019-05-05T09:35:17.141Z,12.75
2019-05-05T09:40:17.145Z,12.25
2019-05-05T09:45:17.186Z,11.63
2019-05-05T09:50:17.281Z,11
2019-05-05T09:55:17.154Z,11.56
2019-05-05T10:00:17.182Z,12.69
2019-05-05T10:05:17.147Z,13.06
2019-05-05T10:10:17.155Z,12.69
2019-05-05T10:15:17.194Z,12
2019-05-05T10:20:17.156Z,11.63
2019-05-05T10:25:17.156Z,11
2019-05-05T10:30:17.203Z,11
2019-05-05T10:35:17.165Z,10.94
2019-05-05T10:40:17.170Z,11.13
2019-05-05T10:45:17.205Z,11.56
2019-05-05T10:50:17.175Z,11.63
2019-05-05T10:55:17.160Z,11.75
2019-05-05T11:00:17.201Z,11.88
2019-05-05T11:05:17.180Z,11.5
2019-05-05T11:10:17.170Z,11.44
2019-05-05T11:15:17.231Z,11.13
2019-05-05T11:20:17.175Z,10.88
2019-05-05T11:25:17.199Z,11.31
2019-05-05T11:30:17.225Z,11.63
2019-05-05T11:35:17.239Z,12.06
2019-05-05T11:40:17.194Z,12.56
2019-05-05T11:45:17.182Z,12.5
2019-05-05T11:50:17.227Z,12.81
2019-05-05T11:55:17.181Z,12.81
2019-05-05T12:00:17.192Z,12.25
2019-05-05T12:05:17.222Z,11.88
2019-05-05T12:10:17.201Z,12
2019-05-05T12:15:17.187Z,11.94
2019-05-05T12:20:17.229Z,12
2019-05-05T12:25:25.913Z,12.19
2019-05-05T12:30:17.221Z,12.13
2019-05-05T12:35:17.235Z,12.31
2019-05-05T12:40:17.209Z,12.38
2019-05-05T12:45:17.206Z,12
2019-05-05T12:50:17.272Z,11.69
2019-05-05T12:55:17.208Z,11.63
2019-05-05T13:00:17.216Z,11.81
2019-05-05T13:05:17.231Z,11.81
2019-05-05T13:10:17.209Z,11.63
2019-05-05T13:15:17.212Z,11.44
2019-05-05T13:20:17.243Z,11.38
2019-05-05T13:25:17.210Z,11.44
2019-05-05T13:30:17.225Z,11.5
2019-05-05T13:35:17.267Z,11.69
2019-05-05T13:40:17.235Z,11.56
2019-05-05T13:45:17.255Z,11.31
2019-05-05T13:50:17.261Z,11.19
2019-05-05T13:55:17.233Z,11.19
2019-05-05T14:00:17.223Z,11.31
2019-05-05T14:05:17.270Z,11.38
2019-05-05T14:10:17.237Z,11.75
2019-05-05T14:15:17.244Z,12.44
2019-05-05T14:20:17.270Z,12.56
2019-05-05T14:25:17.248Z,12.31
2019-05-05T14:30:17.242Z,11.88
2019-05-05T14:35:17.281Z,11.31
2019-05-05T14:40:17.244Z,11.25
2019-05-05T14:45:17.246Z,11.5
2019-05-05T14:50:17.274Z,11.38
2019-05-05T14:55:17.250Z,11.56
2019-05-05T15:00:17.306Z,11.63
2019-05-05T15:05:17.283Z,11.63
2019-05-05T15:10:17.255Z,11.63
2019-05-05T15:15:17.254Z,11.69
2019-05-05T15:20:17.317Z,11.81
2019-05-05T15:25:17.261Z,11.94
2019-05-05T15:30:17.259Z,12.06
2019-05-05T15:35:17.299Z,11.81
2019-05-05T15:40:17.272Z,11.5
2019-05-05T15:45:17.268Z,11.75
2019-05-05T15:50:17.297Z,11.81
2019-05-05T15:55:17.268Z,11.25
2019-05-05T16:00:17.313Z,10.94
2019-05-05T16:05:17.301Z,10.63
2019-05-05T16:10:17.277Z,10.56
2019-05-05T16:15:17.331Z,10.88
2019-05-05T16:20:17.338Z,10.88
2019-05-05T16:30:17.084Z,11.25
2019-05-05T16:35:17.050Z,11
2019-05-05T16:40:17.056Z,10.94
2019-05-05T16:45:17.095Z,10.94
2019-05-05T16:50:17.070Z,10.94
2019-05-05T16:55:17.089Z,10.81
2019-05-05T17:00:17.136Z,10.69
2019-05-05T17:05:17.069Z,10.56
2019-05-05T17:10:17.071Z,10.5
2019-05-05T17:15:17.075Z,10.31
2019-05-05T17:20:17.052Z,10.19
2019-05-05T17:25:17.047Z,10.06
2019-05-05T17:30:17.060Z,10.06
2019-05-05T17:35:17.036Z,9.94
2019-05-05T17:40:17.031Z,9.88
2019-05-05T17:45:17.052Z,9.81
2019-05-05T17:50:17.070Z,9.75
2019-05-05T17:55:17.051Z,9.69
2019-05-05T18:00:17.051Z,9.63
2019-05-05T18:05:17.041Z,9.56
2019-05-05T18:10:17.062Z,9.44
2019-05-05T18:15:17.036Z,9.31
2019-05-05T18:20:17.042Z,9.25
2019-05-05T18:25:17.049Z,9.13
2019-05-05T18:30:17.017Z,9.06
2019-05-05T18:35:17.050Z,8.94
2019-05-05T18:40:17.050Z,8.94
2019-05-05T18:45:17.041Z,8.81
2019-05-05T18:50:17.120Z,8.75
2019-05-05T18:55:17.048Z,8.69
2019-05-05T19:00:17.029Z,8.63
2019-05-05T19:05:17.044Z,8.5
2019-05-05T19:10:17.035Z,8.44
2019-05-05T19:15:17.040Z,8.5
2019-05-05T19:20:17.038Z,8.44
2019-05-05T19:25:17.040Z,8.38
2019-05-05T19:30:17.044Z,8.31
2019-05-05T19:35:17.024Z,8.19
2019-05-05T19:40:17.022Z,8.13
2019-05-05T19:45:17.028Z,8
2019-05-05T19:50:17.228Z,7.94
2019-05-05T19:55:17.050Z,7.75
2019-05-05T20:00:17.020Z,7.63
2019-05-05T20:05:17.016Z,7.38
2019-05-05T20:10:17.017Z,7.25
2019-05-05T20:15:17.013Z,7.25
2019-05-05T20:20:17.012Z,7.31
2019-05-05T20:25:17.040Z,7.31
2019-05-05T20:30:16.976Z,7.38
2019-05-05T20:35:16.970Z,7.5
2019-05-05T20:40:17.004Z,7.5
2019-05-05T20:45:16.969Z,7.38
2019-05-05T20:50:16.964Z,7.38
2019-05-05T20:55:17.034Z,7.25
2019-05-05T21:00:16.972Z,7.13
2019-05-05T21:05:16.978Z,7
2019-05-05T21:10:17.001Z,6.94
2019-05-05T21:15:16.964Z,6.88
2019-05-05T21:20:16.963Z,6.88
2019-05-05T21:25:16.992Z,6.94
2019-05-05T21:30:16.977Z,6.94
2019-05-05T21:35:16.950Z,6.94
2019-05-05T21:40:16.983Z,6.94
2019-05-05T21:45:16.989Z,6.88
